createdAt,value
2023-01-26T00:02:12.647Z,5.40
2023-01-26T00:04:44.528Z,5.40
2023-01-26T00:07:16.488Z,5.40
2023-01-26T00:09:48.311Z,5.30
2023-01-26T00:12:20.210Z,5.30
2023-01-26T00:14:52.090Z,5.40
2023-01-26T00:17:27.073Z,5.50
2023-01-26T00:19:59.248Z,5.50
2023-01-26T00:22:31.317Z,5.50
2023-01-26T00:25:03.263Z,5.50
2023-01-26T00:27:35.216Z,5.50
2023-01-26T00:30:07.920Z,5.50
2023-01-26T00:32:40.220Z,5.40
2023-01-26T00:35:12.485Z,5.50
2023-01-26T00:37:44.490Z,5.60
2023-01-26T00:40:19.913Z,5.60
2023-01-26T00:42:54.394Z,5.60
2023-01-26T00:45:27.971Z,5.70
2023-01-26T00:48:00.471Z,5.60
2023-01-26T00:50:33.259Z,5.70
2023-01-26T00:53:05.118Z,5.60
2023-01-26T00:55:37.620Z,5.70
2023-01-26T00:58:10.799Z,5.70
2023-01-26T01:00:42.727Z,5.80
2023-01-26T01:03:15.687Z,5.90
2023-01-26T01:05:47.547Z,5.80
2023-01-26T01:08:19.368Z,5.70
2023-01-26T01:11:02.152Z,5.70
2023-01-26T01:13:34.058Z,5.70
2023-01-26T01:16:11.063Z,5.70
2023-01-26T01:18:43.306Z,5.70
2023-01-26T01:21:17.197Z,5.80
2023-01-26T01:23:49.256Z,5.80
2023-01-26T01:26:21.281Z,5.90
2023-01-26T01:28:57.600Z,6.00
2023-01-26T01:31:29.876Z,6.00
2023-01-26T01:34:01.843Z,6.00
2023-01-26T01:36:33.740Z,6.10
2023-01-26T01:39:06.926Z,6.00
2023-01-26T01:41:38.756Z,6.00
2023-01-26T01:44:21.786Z,6.10
2023-01-26T01:47:21.248Z,6.00
2023-01-26T01:49:53.889Z,6.00
2023-01-26T01:52:29.871Z,6.00
2023-01-26T01:55:07.446Z,6.00
2023-01-26T01:57:51.796Z,5.90
2023-01-26T02:00:24.470Z,5.90
2023-01-26T02:03:11.531Z,6.00
2023-01-26T02:06:02.965Z,6.00
2023-01-26T02:08:39.969Z,6.00
2023-01-26T02:11:16.371Z,6.00
2023-01-26T02:13:49.447Z,6.00
2023-01-26T02:16:21.636Z,5.90
2023-01-26T02:18:54.054Z,5.90
2023-01-26T02:21:27.832Z,5.90
2023-01-26T02:24:22.526Z,5.80
2023-01-26T02:26:55.052Z,5.90
2023-01-26T02:29:27.815Z,6.00
2023-01-26T02:31:59.790Z,6.00
2023-01-26T02:34:31.688Z,6.00
2023-01-26T02:37:04.419Z,6.00
2023-01-26T02:39:55.717Z,6.00
2023-01-26T02:42:39.582Z,6.00
2023-01-26T02:45:15.043Z,6.10
2023-01-26T02:47:48.265Z,6.00
2023-01-26T02:50:20.241Z,6.00
2023-01-26T02:52:52.120Z,6.00
2023-01-26T02:55:27.664Z,6.00
2023-01-26T02:58:02.803Z,5.90
2023-01-26T03:00:37.705Z,6.00
2023-01-26T03:03:19.784Z,5.90
2023-01-26T03:05:52.401Z,5.80
2023-01-26T03:08:24.260Z,5.90
2023-01-26T03:10:57.142Z,5.90
2023-01-26T03:13:29.119Z,5.90
2023-01-26T03:16:07.962Z,5.90
2023-01-26T03:18:58.766Z,6.00
2023-01-26T03:21:49.661Z,6.00
2023-01-26T03:24:39.864Z,5.90
2023-01-26T03:27:26.725Z,5.90
2023-01-26T03:30:00.252Z,5.90
2023-01-26T03:32:32.260Z,5.90
2023-01-26T03:35:05.978Z,5.90
2023-01-26T03:37:43.601Z,5.90
2023-01-26T03:40:39.916Z,5.90
2023-01-26T03:43:30.170Z,5.90
2023-01-26T03:46:26.516Z,5.90
2023-01-26T03:49:17.690Z,5.90
2023-01-26T03:52:09.215Z,5.90
2023-01-26T03:55:00.256Z,5.90
2023-01-26T03:57:32.133Z,5.90
2023-01-26T04:00:04.579Z,5.90
2023-01-26T04:03:02.695Z,5.90
2023-01-26T04:05:54.860Z,6.00
2023-01-26T04:08:27.298Z,6.00
2023-01-26T04:11:04.576Z,5.90
2023-01-26T04:13:54.797Z,5.90
2023-01-26T04:16:53.558Z,5.90
2023-01-26T04:19:44.643Z,5.90
2023-01-26T04:22:16.694Z,6.00
2023-01-26T04:24:52.202Z,5.90
2023-01-26T04:27:24.872Z,5.70
2023-01-26T04:29:57.109Z,5.70
2023-01-26T04:32:29.498Z,5.70
2023-01-26T04:35:01.486Z,5.70
2023-01-26T04:37:36.698Z,5.70
2023-01-26T04:40:10.186Z,5.70
2023-01-26T04:42:43.291Z,5.70
2023-01-26T04:45:15.339Z,5.70
2023-01-26T04:47:49.457Z,5.80
2023-01-26T04:50:22.019Z,5.80
2023-01-26T04:52:54.080Z,5.80
2023-01-26T04:55:25.976Z,5.80
2023-01-26T04:57:58.451Z,5.70
2023-01-26T05:00:30.802Z,5.70
2023-01-26T05:03:03.826Z,5.70
2023-01-26T05:05:45.643Z,5.70
2023-01-26T05:08:18.483Z,5.60
2023-01-26T05:10:51.906Z,5.60
2023-01-26T05:13:44.023Z,5.70
2023-01-26T05:16:21.546Z,5.70
2023-01-26T05:19:12.263Z,5.60
2023-01-26T05:21:50.197Z,5.50
2023-01-26T05:24:22.762Z,5.50
2023-01-26T05:27:21.911Z,5.60
2023-01-26T05:30:02.637Z,5.60
2023-01-26T05:32:38.215Z,5.60
2023-01-26T05:35:11.139Z,5.60
2023-01-26T05:37:43.333Z,5.60
2023-01-26T05:40:15.516Z,5.60
2023-01-26T05:42:47.455Z,5.40
2023-01-26T05:45:26.450Z,5.30
2023-01-26T05:48:01.890Z,5.20
2023-01-26T05:50:36.111Z,5.20
2023-01-26T05:53:19.662Z,5.20
2023-01-26T05:55:53.226Z,5.20
2023-01-26T05:58:28.290Z,5.10
2023-01-26T06:01:04.592Z,5.10
2023-01-26T06:03:42.439Z,5.00
2023-01-26T06:06:14.394Z,5.10
2023-01-26T06:08:53.179Z,5.10
2023-01-26T06:11:56.419Z,5.10
2023-01-26T06:14:40.739Z,5.00
2023-01-26T06:17:15.093Z,5.10
2023-01-26T06:19:47.129Z,5.00
2023-01-26T06:22:19.371Z,5.10
2023-01-26T06:24:54.447Z,5.10
2023-01-26T06:27:26.382Z,5.10
2023-01-26T06:29:58.728Z,5.00
2023-01-26T06:32:30.945Z,5.00
2023-01-26T06:35:06.503Z,4.90
2023-01-26T06:37:38.643Z,5.00
2023-01-26T06:40:11.987Z,5.00
2023-01-26T06:42:49.045Z,5.00
2023-01-26T06:45:22.563Z,5.10
2023-01-26T06:47:56.745Z,5.00
2023-01-26T06:50:33.827Z,5.00
2023-01-26T06:53:26.424Z,4.90
2023-01-26T06:56:17.130Z,4.90
2023-01-26T06:59:24.415Z,4.90
2023-01-26T07:02:20.080Z,4.90
2023-01-26T07:04:52.750Z,4.80
2023-01-26T07:07:24.780Z,4.80
2023-01-26T07:09:56.693Z,4.80
2023-01-26T07:12:38.995Z,4.90
2023-01-26T07:15:12.674Z,4.90
2023-01-26T07:17:44.558Z,4.90
2023-01-26T07:20:16.689Z,5.00
2023-01-26T07:22:48.578Z,5.00
2023-01-26T07:25:20.752Z,5.10
2023-01-26T07:27:57.439Z,5.10
2023-01-26T07:30:29.452Z,5.20
2023-01-26T07:33:01.322Z,5.20
2023-01-26T07:35:33.254Z,5.20
2023-01-26T07:38:05.478Z,5.30
2023-01-26T07:40:37.321Z,5.30
2023-01-26T07:43:09.141Z,5.30
2023-01-26T07:45:54.350Z,5.20
2023-01-26T07:48:26.265Z,5.20
2023-01-26T07:51:00.091Z,5.10
2023-01-26T07:53:34.234Z,5.10
2023-01-26T07:56:08.402Z,5.20
2023-01-26T07:58:40.967Z,5.20
2023-01-26T08:01:14.665Z,5.20
2023-01-26T08:03:49.576Z,5.30
2023-01-26T08:06:22.026Z,5.40
2023-01-26T08:08:57.713Z,5.50
2023-01-26T08:11:29.826Z,5.60
2023-01-26T08:14:01.875Z,5.50
2023-01-26T08:16:33.951Z,5.50
2023-01-26T08:19:08.865Z,5.40
2023-01-26T08:21:41.028Z,5.40
2023-01-26T08:24:13.366Z,5.30
2023-01-26T08:26:45.326Z,5.30
2023-01-26T08:29:17.324Z,5.30
2023-01-26T08:31:49.324Z,5.40
2023-01-26T08:34:22.611Z,5.40
2023-01-26T08:36:54.456Z,5.50
2023-01-26T08:39:26.358Z,5.70
2023-01-26T08:41:58.330Z,5.80
2023-01-26T08:44:30.197Z,5.90
2023-01-26T08:47:02.132Z,6.00
2023-01-26T08:49:33.959Z,6.00
2023-01-26T08:52:05.803Z,6.00
2023-01-26T08:54:37.692Z,6.00
2023-01-26T08:57:09.611Z,6.10
2023-01-26T08:59:44.922Z,6.10
2023-01-26T09:02:16.881Z,6.10
2023-01-26T09:04:48.836Z,6.20
2023-01-26T09:07:20.712Z,6.20
2023-01-26T09:09:52.581Z,6.30
2023-01-26T09:12:24.419Z,6.30
2023-01-26T09:14:56.331Z,6.30
2023-01-26T09:17:28.156Z,6.30
2023-01-26T09:20:00.004Z,6.40
2023-01-26T09:22:31.960Z,6.50
2023-01-26T09:25:04.789Z,6.60
2023-01-26T09:27:37.048Z,6.80
2023-01-26T09:30:09.769Z,6.90
2023-01-26T09:32:41.743Z,6.90
2023-01-26T09:35:14.987Z,6.80
2023-01-26T09:37:47.265Z,6.90
2023-01-26T09:40:39.976Z,7.00
2023-01-26T09:43:34.218Z,7.00
2023-01-26T09:46:38.901Z,7.00
2023-01-26T09:49:29.580Z,7.30
2023-01-26T09:52:15.953Z,7.50
2023-01-26T09:54:51.498Z,7.60
2023-01-26T09:57:42.109Z,8.00
2023-01-26T10:00:28.113Z,8.80
2023-01-26T10:03:27.372Z,9.40
2023-01-26T10:06:05.238Z,9.80
2023-01-26T10:09:18.489Z,9.90
2023-01-26T10:11:54.286Z,9.50
2023-01-26T10:14:41.033Z,9.20
2023-01-26T10:17:28.502Z,9.00
2023-01-26T10:20:03.778Z,9.00
2023-01-26T10:22:44.777Z,8.70
2023-01-26T10:25:19.726Z,8.40
2023-01-26T10:27:51.645Z,8.30
2023-01-26T10:30:23.556Z,8.20
2023-01-26T10:32:56.309Z,8.30
2023-01-26T10:35:28.671Z,8.40
2023-01-26T10:38:00.783Z,8.50
2023-01-26T10:40:44.957Z,8.40
2023-01-26T10:43:20.255Z,8.60
2023-01-26T10:45:52.156Z,9.00
2023-01-26T10:48:27.252Z,8.90
2023-01-26T10:51:16.346Z,8.70
2023-01-26T10:53:48.333Z,8.60
2023-01-26T10:56:20.384Z,8.70
2023-01-26T10:59:05.603Z,8.90
2023-01-26T11:01:55.638Z,9.00
2023-01-26T11:04:28.540Z,8.90
2023-01-26T11:07:25.596Z,9.00
2023-01-26T11:10:21.142Z,8.90
2023-01-26T11:13:20.515Z,8.60
2023-01-26T11:16:17.307Z,8.70
2023-01-26T11:19:00.333Z,8.80
2023-01-26T11:22:08.043Z,9.00
2023-01-26T11:24:51.739Z,9.10
2023-01-26T11:27:30.041Z,9.10
2023-01-26T11:30:06.452Z,8.80
2023-01-26T11:33:16.930Z,8.60
2023-01-26T11:35:59.226Z,8.40
2023-01-26T11:38:41.636Z,8.50
2023-01-26T11:41:29.501Z,8.40
2023-01-26T11:44:11.071Z,8.10
2023-01-26T11:47:01.085Z,8.20
2023-01-26T11:50:04.583Z,8.20
2023-01-26T11:52:49.647Z,8.10
2023-01-26T11:55:24.350Z,8.10
2023-01-26T11:57:58.992Z,8.30
2023-01-26T12:00:44.418Z,8.20
2023-01-26T12:03:20.332Z,8.10
2023-01-26T12:06:00.612Z,8.20
2023-01-26T12:08:41.816Z,8.10
2023-01-26T12:11:22.825Z,8.20
2023-01-26T12:14:18.682Z,8.30
2023-01-26T12:17:11.537Z,8.60
2023-01-26T12:20:05.301Z,8.80
2023-01-26T12:22:46.791Z,8.90
2023-01-26T12:25:34.275Z,8.70
2023-01-26T12:28:12.761Z,8.50
2023-01-26T12:31:09.957Z,8.40
2023-01-26T12:33:42.471Z,8.30
2023-01-26T12:36:27.558Z,8.20
2023-01-26T12:39:05.064Z,8.10
2023-01-26T12:41:58.328Z,8.10
2023-01-26T12:45:02.591Z,8.10
2023-01-26T12:47:56.998Z,8.00
2023-01-26T12:50:41.141Z,8.00
2023-01-26T12:53:31.539Z,8.10
2023-01-26T12:56:16.264Z,8.10
2023-01-26T12:58:50.173Z,8.10
2023-01-26T13:01:26.336Z,8.30
2023-01-26T13:04:02.176Z,8.40
2023-01-26T13:06:34.208Z,8.20
2023-01-26T13:09:25.234Z,8.30
2023-01-26T13:12:00.728Z,8.30
2023-01-26T13:14:59.851Z,8.40
2023-01-26T13:17:48.927Z,8.50
2023-01-26T13:20:43.481Z,8.40
2023-01-26T13:23:41.555Z,8.30
2023-01-26T13:26:22.807Z,8.40
2023-01-26T13:29:28.111Z,8.30
2023-01-26T13:32:19.982Z,8.40
2023-01-26T13:34:57.978Z,8.40
2023-01-26T13:37:51.101Z,8.40
2023-01-26T13:40:35.805Z,8.40
2023-01-26T13:43:41.826Z,8.40
2023-01-26T13:46:22.873Z,8.50
2023-01-26T13:48:56.341Z,8.50
2023-01-26T13:51:30.278Z,8.40
2023-01-26T13:54:12.177Z,8.30
2023-01-26T13:56:59.424Z,8.30
2023-01-26T13:59:33.184Z,8.40
2023-01-26T14:02:21.187Z,8.40
2023-01-26T14:04:55.888Z,8.30
2023-01-26T14:07:51.877Z,8.30
2023-01-26T14:10:24.103Z,8.30
2023-01-26T14:13:04.283Z,8.10
2023-01-26T14:15:36.276Z,8.10
2023-01-26T14:18:21.338Z,8.00
2023-01-26T14:21:05.636Z,7.90
2023-01-26T14:23:37.612Z,7.90
2023-01-26T14:26:24.625Z,7.90
2023-01-26T14:28:58.161Z,8.10
2023-01-26T14:31:30.965Z,8.10
2023-01-26T14:34:09.868Z,8.10
2023-01-26T14:36:41.737Z,8.10
2023-01-26T14:39:19.260Z,8.10
2023-01-26T14:41:51.647Z,8.00
2023-01-26T14:44:23.751Z,8.00
2023-01-26T14:47:07.536Z,8.00
2023-01-26T14:49:48.129Z,7.90
2023-01-26T14:52:28.275Z,7.70
2023-01-26T14:55:09.391Z,7.70
2023-01-26T14:57:41.509Z,7.60
2023-01-26T15:00:30.056Z,7.60
2023-01-26T15:03:11.953Z,7.60
2023-01-26T15:05:44.680Z,7.50
2023-01-26T15:08:24.037Z,7.50
2023-01-26T15:11:16.880Z,7.50
2023-01-26T15:13:53.686Z,7.40
2023-01-26T15:16:26.448Z,7.30
2023-01-26T15:18:59.925Z,7.30
2023-01-26T15:21:44.387Z,7.30
2023-01-26T15:24:17.931Z,7.40
2023-01-26T15:26:51.537Z,7.40
2023-01-26T15:29:32.940Z,7.50
2023-01-26T15:32:05.121Z,7.50
2023-01-26T15:34:42.281Z,7.50
2023-01-26T15:37:32.082Z,7.50
2023-01-26T15:40:04.508Z,7.40
2023-01-26T15:42:37.165Z,7.40
2023-01-26T15:45:25.446Z,7.40
2023-01-26T15:47:57.257Z,7.40
2023-01-26T15:50:29.577Z,7.60
2023-01-26T15:53:01.791Z,7.80
2023-01-26T15:55:34.331Z,7.90
2023-01-26T15:58:06.282Z,7.90
2023-01-26T16:00:38.929Z,8.00
2023-01-26T16:03:17.411Z,8.10
2023-01-26T16:05:49.811Z,8.30
2023-01-26T16:08:21.809Z,8.30
2023-01-26T16:10:56.918Z,8.20
2023-01-26T16:13:34.162Z,8.20
2023-01-26T16:16:06.607Z,8.20
2023-01-26T16:18:38.565Z,8.00
2023-01-26T16:21:21.279Z,7.80
2023-01-26T16:23:53.386Z,7.70
2023-01-26T16:26:26.560Z,7.60
2023-01-26T16:28:58.596Z,7.60
2023-01-26T16:31:32.906Z,7.50
2023-01-26T16:34:04.914Z,7.40
2023-01-26T16:36:36.742Z,7.30
2023-01-26T16:39:08.664Z,7.30
2023-01-26T16:41:40.544Z,7.10
2023-01-26T16:44:14.966Z,7.00
2023-01-26T16:46:47.163Z,6.90
2023-01-26T16:49:19.150Z,6.90
2023-01-26T16:51:51.413Z,6.80
2023-01-26T16:54:23.285Z,6.80
2023-01-26T16:56:55.280Z,6.80
2023-01-26T16:59:27.150Z,6.80
2023-01-26T17:01:59.428Z,6.80
2023-01-26T17:04:31.286Z,6.80
2023-01-26T17:07:03.177Z,6.80
2023-01-26T17:09:34.991Z,6.80
2023-01-26T17:12:10.508Z,6.80
2023-01-26T17:14:42.598Z,6.80
2023-01-26T17:17:17.857Z,6.70
2023-01-26T17:19:49.750Z,6.70
2023-01-26T17:22:23.614Z,6.70
2023-01-26T17:24:55.952Z,6.70
2023-01-26T17:27:27.883Z,6.60
2023-01-26T17:30:00.987Z,6.60
2023-01-26T17:32:33.453Z,6.60
2023-01-26T17:35:05.789Z,6.50
2023-01-26T17:37:38.215Z,6.50
2023-01-26T17:40:11.778Z,6.60
2023-01-26T17:42:44.185Z,6.50
2023-01-26T17:45:16.216Z,6.70
2023-01-26T17:47:48.148Z,6.90
2023-01-26T17:50:20.416Z,6.80
2023-01-26T17:52:52.482Z,6.80
2023-01-26T17:55:24.393Z,6.90
2023-01-26T17:57:56.575Z,6.90
2023-01-26T18:00:28.607Z,7.00
2023-01-26T18:03:00.766Z,7.00
2023-01-26T18:05:33.194Z,6.90
2023-01-26T18:08:08.635Z,7.00
2023-01-26T18:10:40.471Z,7.00
2023-01-26T18:13:13.355Z,7.10
2023-01-26T18:15:45.540Z,7.20
2023-01-26T18:18:17.471Z,7.20
2023-01-26T18:20:49.411Z,7.20
2023-01-26T18:23:22.694Z,7.30
2023-01-26T18:25:54.784Z,7.20
2023-01-26T18:28:27.208Z,6.90
2023-01-26T18:31:01.187Z,6.80
2023-01-26T18:33:33.311Z,6.80
2023-01-26T18:36:12.418Z,6.80
2023-01-26T18:38:55.147Z,6.80
2023-01-26T18:41:28.563Z,6.70
2023-01-26T18:44:03.130Z,6.80
2023-01-26T18:46:38.042Z,6.80
2023-01-26T18:49:10.706Z,6.70
2023-01-26T18:51:47.991Z,6.70
2023-01-26T18:54:20.385Z,6.70
2023-01-26T18:56:52.567Z,6.60
2023-01-26T18:59:24.463Z,6.70
2023-01-26T19:01:56.533Z,6.60
2023-01-26T19:04:29.181Z,6.50
2023-01-26T19:07:01.275Z,6.30
2023-01-26T19:09:34.957Z,6.20
2023-01-26T19:12:07.411Z,6.10
2023-01-26T19:14:39.341Z,6.10
2023-01-26T19:17:11.223Z,6.10
2023-01-26T19:19:43.196Z,6.10
2023-01-26T19:22:15.094Z,6.10
2023-01-26T19:24:47.029Z,6.10
2023-01-26T19:27:18.888Z,6.20
2023-01-26T19:29:51.698Z,6.20
2023-01-26T19:32:23.781Z,6.20
2023-01-26T19:34:55.817Z,6.20
2023-01-26T19:37:41.956Z,6.30
2023-01-26T19:40:14.015Z,6.30
2023-01-26T19:42:45.859Z,6.30
2023-01-26T19:45:17.718Z,6.30
2023-01-26T19:47:50.244Z,6.30
2023-01-26T19:50:22.248Z,6.30
2023-01-26T19:52:54.102Z,6.30
2023-01-26T19:55:28.814Z,6.30
2023-01-26T19:58:00.751Z,6.30
2023-01-26T20:00:32.636Z,6.30
2023-01-26T20:03:04.479Z,6.30
2023-01-26T20:05:37.163Z,6.20
2023-01-26T20:08:09.108Z,6.20
2023-01-26T20:10:40.932Z,6.20
2023-01-26T20:13:12.862Z,6.20
2023-01-26T20:15:44.907Z,6.20
2023-01-26T20:18:21.953Z,6.20
2023-01-26T20:20:55.881Z,6.30
2023-01-26T20:23:28.380Z,6.30
2023-01-26T20:26:02.356Z,6.20
2023-01-26T20:28:35.225Z,6.20
2023-01-26T20:31:10.283Z,6.00
2023-01-26T20:33:43.830Z,6.00
2023-01-26T20:36:18.713Z,6.10
2023-01-26T20:38:51.401Z,6.00
2023-01-26T20:41:28.330Z,6.00
2023-01-26T20:44:03.630Z,6.10
2023-01-26T20:46:39.757Z,6.10
2023-01-26T20:49:16.724Z,6.10
2023-01-26T20:51:49.115Z,6.00
2023-01-26T20:54:21.240Z,6.00
2023-01-26T20:56:53.114Z,6.00
2023-01-26T20:59:24.977Z,5.90
2023-01-26T21:01:57.164Z,5.70
2023-01-26T21:04:32.066Z,5.70
2023-01-26T21:07:03.914Z,5.70
2023-01-26T21:09:36.478Z,5.80
2023-01-26T21:12:08.535Z,5.80
2023-01-26T21:14:40.498Z,5.80
2023-01-26T21:17:12.478Z,5.70
2023-01-26T21:19:44.575Z,5.80
2023-01-26T21:22:16.984Z,5.80
2023-01-26T21:24:48.850Z,5.90
2023-01-26T21:27:20.726Z,6.00
2023-01-26T21:29:52.584Z,5.90
2023-01-26T21:32:24.639Z,5.80
2023-01-26T21:34:56.530Z,5.80
2023-01-26T21:37:28.483Z,5.80
2023-01-26T21:40:00.416Z,5.90
2023-01-26T21:42:34.230Z,5.90
2023-01-26T21:45:25.495Z,5.80
2023-01-26T21:48:18.260Z,5.70
2023-01-26T21:51:08.402Z,5.70
2023-01-26T21:53:40.472Z,5.70
2023-01-26T21:56:14.738Z,5.60
2023-01-26T21:58:57.769Z,5.40
2023-01-26T22:01:31.356Z,5.40
2023-01-26T22:04:09.518Z,5.40
2023-01-26T22:06:41.973Z,5.40
2023-01-26T22:09:16.191Z,5.40
2023-01-26T22:11:50.536Z,5.50
2023-01-26T22:14:26.104Z,5.60
2023-01-26T22:16:59.120Z,5.70
2023-01-26T22:19:31.078Z,5.70
2023-01-26T22:22:03.566Z,5.80
2023-01-26T22:24:35.533Z,5.70
2023-01-26T22:27:08.360Z,5.70
2023-01-26T22:29:40.297Z,5.70
2023-01-26T22:32:12.387Z,5.60
2023-01-26T22:34:44.935Z,5.60
2023-01-26T22:37:17.105Z,5.70
2023-01-26T22:39:49.628Z,5.70
2023-01-26T22:42:21.908Z,5.70
2023-01-26T22:44:53.826Z,5.70
2023-01-26T22:47:25.860Z,5.70
2023-01-26T22:49:58.311Z,5.70
2023-01-26T22:52:30.265Z,5.60
2023-01-26T22:55:02.503Z,5.60
2023-01-26T22:57:34.411Z,5.60
2023-01-26T23:00:08.241Z,5.50
2023-01-26T23:02:40.234Z,5.50
2023-01-26T23:05:12.186Z,5.40
2023-01-26T23:07:44.090Z,5.40
2023-01-26T23:10:16.102Z,5.40
2023-01-26T23:12:48.079Z,5.40
2023-01-26T23:15:20.147Z,5.40
2023-01-26T23:17:52.834Z,5.40
2023-01-26T23:20:24.780Z,5.40
2023-01-26T23:22:56.638Z,5.40
2023-01-26T23:25:47.016Z,5.40
2023-01-26T23:28:21.435Z,5.40
2023-01-26T23:30:55.056Z,5.30
2023-01-26T23:33:30.039Z,5.40
2023-01-26T23:36:02.711Z,5.40
2023-01-26T23:38:35.085Z,5.30
2023-01-26T23:41:08.729Z,5.30
2023-01-26T23:43:40.662Z,5.20
2023-01-26T23:46:12.849Z,5.30
2023-01-26T23:48:44.690Z,5.20
2023-01-26T23:51:16.631Z,5.20
2023-01-26T23:53:48.526Z,5.30
2023-01-26T23:56:20.350Z,5.40
2023-01-26T23:58:52.204Z,5.40
